sensor_id;sensor_type;location;lat;lon;timestamp;temperature;humidity
9975;DHT22;5028;50.974;4.968;2022-08-19T00:02:16;18.80;99.90
9975;DHT22;5028;50.974;4.968;2022-08-19T00:04:45;18.90;99.90
9975;DHT22;5028;50.974;4.968;2022-08-19T00:07:23;18.90;99.90
9975;DHT22;5028;50.974;4.968;2022-08-19T00:09:51;18.90;99.90
9975;DHT22;5028;50.974;4.968;2022-08-19T00:12:27;18.90;99.90
9975;DHT22;5028;50.974;4.968;2022-08-19T00:15:03;18.90;99.90
9975;DHT22;5028;50.974;4.968;2022-08-19T00:17:39;18.90;99.90
9975;DHT22;5028;50.974;4.968;2022-08-19T00:20:18;18.80;99.90
9975;DHT22;5028;50.974;4.968;2022-08-19T00:22:54;18.80;99.90
9975;DHT22;5028;50.974;4.968;2022-08-19T00:25:22;18.70;99.90
9975;DHT22;5028;50.974;4.968;2022-08-19T00:27:57;18.80;99.90
9975;DHT22;5028;50.974;4.968;2022-08-19T00:30:26;18.70;99.90
9975;DHT22;5028;50.974;4.968;2022-08-19T00:33:01;18.70;99.90
9975;DHT22;5028;50.974;4.968;2022-08-19T00:35:31;18.70;99.90
9975;DHT22;5028;50.974;4.968;2022-08-19T00:38:07;18.70;99.90
9975;DHT22;5028;50.974;4.968;2022-08-19T00:40:35;18.70;99.90
9975;DHT22;5028;50.974;4.968;2022-08-19T00:43:11;18.60;99.90
9975;DHT22;5028;50.974;4.968;2022-08-19T00:45:40;18.60;99.90
9975;DHT22;5028;50.974;4.968;2022-08-19T00:48:17;18.60;99.90
9975;DHT22;5028;50.974;4.968;2022-08-19T00:50:49;18.50;99.90
9975;DHT22;5028;50.974;4.968;2022-08-19T00:53:28;18.50;99.90
9975;DHT22;5028;50.974;4.968;2022-08-19T00:55:59;18.50;99.90
9975;DHT22;5028;50.974;4.968;2022-08-19T00:58:35;18.40;99.90
9975;DHT22;5028;50.974;4.968;2022-08-19T01:01:05;18.40;99.90
9975;DHT22;5028;50.974;4.968;2022-08-19T01:03:41;18.30;99.90
9975;DHT22;5028;50.974;4.968;2022-08-19T01:06:26;18.30;99.90
9975;DHT22;5028;50.974;4.968;2022-08-19T01:09:01;18.30;99.90
9975;DHT22;5028;50.974;4.968;2022-08-19T01:11:31;18.30;99.90
9975;DHT22;5028;50.974;4.968;2022-08-19T01:14:07;18.20;99.90
9975;DHT22;5028;50.974;4.968;2022-08-19T01:16:43;18.20;99.90
9975;DHT22;5028;50.974;4.968;2022-08-19T01:19:24;18.30;99.90
9975;DHT22;5028;50.974;4.968;2022-08-19T01:22:00;18.20;99.90
9975;DHT22;5028;50.974;4.968;2022-08-19T01:24:41;18.20;99.90
9975;DHT22;5028;50.974;4.968;2022-08-19T01:27:16;18.20;99.90
9975;DHT22;5028;50.974;4.968;2022-08-19T01:29:51;18.20;99.90
9975;DHT22;5028;50.974;4.968;2022-08-19T01:32:20;18.20;99.90
9975;DHT22;5028;50.974;4.968;2022-08-19T01:35:00;18.10;99.90
9975;DHT22;5028;50.974;4.968;2022-08-19T01:37:40;18.10;99.90
9975;DHT22;5028;50.974;4.968;2022-08-19T01:40:17;18.10;99.90
9975;DHT22;5028;50.974;4.968;2022-08-19T01:42:48;18.10;99.90
9975;DHT22;5028;50.974;4.968;2022-08-19T01:45:25;18.10;99.90
9975;DHT22;5028;50.974;4.968;2022-08-19T01:47:54;18.00;99.90
9975;DHT22;5028;50.974;4.968;2022-08-19T01:50:29;18.00;99.90
9975;DHT22;5028;50.974;4.968;2022-08-19T01:53:00;18.00;99.90
9975;DHT22;5028;50.974;4.968;2022-08-19T01:55:39;18.00;99.90
9975;DHT22;5028;50.974;4.968;2022-08-19T01:58:11;18.00;99.90
9975;DHT22;5028;50.974;4.968;2022-08-19T02:00:46;17.90;99.90
9975;DHT22;5028;50.974;4.968;2022-08-19T02:03:15;17.90;99.90
9975;DHT22;5028;50.974;4.968;2022-08-19T02:05:54;17.90;99.90
9975;DHT22;5028;50.974;4.968;2022-08-19T02:08:23;17.90;99.90
9975;DHT22;5028;50.974;4.968;2022-08-19T02:10:59;17.90;99.90
9975;DHT22;5028;50.974;4.968;2022-08-19T02:13:28;17.80;99.90
9975;DHT22;5028;50.974;4.968;2022-08-19T02:16:04;17.80;99.90
9975;DHT22;5028;50.974;4.968;2022-08-19T02:18:47;17.80;99.90
9975;DHT22;5028;50.974;4.968;2022-08-19T02:21:23;17.80;99.90
9975;DHT22;5028;50.974;4.968;2022-08-19T02:23:52;17.80;99.90
9975;DHT22;5028;50.974;4.968;2022-08-19T02:26:29;17.70;99.90
9975;DHT22;5028;50.974;4.968;2022-08-19T02:28:57;17.70;99.90
9975;DHT22;5028;50.974;4.968;2022-08-19T02:31:33;17.70;99.90
9975;DHT22;5028;50.974;4.968;2022-08-19T02:34:02;17.70;99.90
9975;DHT22;5028;50.974;4.968;2022-08-19T02:36:37;17.70;99.90
9975;DHT22;5028;50.974;4.968;2022-08-19T02:39:08;17.60;99.90
9975;DHT22;5028;50.974;4.968;2022-08-19T02:41:43;17.60;99.90
9975;DHT22;5028;50.974;4.968;2022-08-19T02:44:12;17.60;99.90
9975;DHT22;5028;50.974;4.968;2022-08-19T02:46:57;17.60;99.90
9975;DHT22;5028;50.974;4.968;2022-08-19T02:49:25;17.60;99.90
9975;DHT22;5028;50.974;4.968;2022-08-19T02:52:02;17.50;99.90
9975;DHT22;5028;50.974;4.968;2022-08-19T02:54:30;17.50;99.90
9975;DHT22;5028;50.974;4.968;2022-08-19T02:57:06;17.50;99.90
9975;DHT22;5028;50.974;4.968;2022-08-19T02:59:35;17.40;99.90
9975;DHT22;5028;50.974;4.968;2022-08-19T03:02:10;17.40;99.90
9975;DHT22;5028;50.974;4.968;2022-08-19T03:04:39;17.40;99.90
9975;DHT22;5028;50.974;4.968;2022-08-19T03:07:15;17.40;99.90
9975;DHT22;5028;50.974;4.968;2022-08-19T03:09:43;17.40;99.90
9975;DHT22;5028;50.974;4.968;2022-08-19T03:12:20;17.40;99.90
9975;DHT22;5028;50.974;4.968;2022-08-19T03:14:48;17.30;99.90
9975;DHT22;5028;50.974;4.968;2022-08-19T03:17:23;17.40;99.90
9975;DHT22;5028;50.974;4.968;2022-08-19T03:19:59;17.30;99.90
9975;DHT22;5028;50.974;4.968;2022-08-19T03:22:33;17.30;99.90
9975;DHT22;5028;50.974;4.968;2022-08-19T03:25:01;17.30;99.90
9975;DHT22;5028;50.974;4.968;2022-08-19T03:27:37;17.30;99.90
9975;DHT22;5028;50.974;4.968;2022-08-19T03:30:07;17.20;99.90
9975;DHT22;5028;50.974;4.968;2022-08-19T03:32:48;17.20;99.90
9975;DHT22;5028;50.974;4.968;2022-08-19T03:35:22;17.20;99.90
9975;DHT22;5028;50.974;4.968;2022-08-19T03:37:58;17.20;99.90
9975;DHT22;5028;50.974;4.968;2022-08-19T03:40:26;17.20;99.90
9975;DHT22;5028;50.974;4.968;2022-08-19T03:43:05;17.20;99.90
9975;DHT22;5028;50.974;4.968;2022-08-19T03:45:33;17.10;99.90
9975;DHT22;5028;50.974;4.968;2022-08-19T03:48:08;17.10;99.90
9975;DHT22;5028;50.974;4.968;2022-08-19T03:50:38;17.10;99.90
9975;DHT22;5028;50.974;4.968;2022-08-19T03:53:13;17.10;99.90
9975;DHT22;5028;50.974;4.968;2022-08-19T03:55:42;17.10;99.90
9975;DHT22;5028;50.974;4.968;2022-08-19T03:58:19;17.00;99.90
9975;DHT22;5028;50.974;4.968;2022-08-19T04:00:47;17.00;99.90
9975;DHT22;5028;50.974;4.968;2022-08-19T04:03:22;17.00;99.90
9975;DHT22;5028;50.974;4.968;2022-08-19T04:05:51;17.00;99.90
9975;DHT22;5028;50.974;4.968;2022-08-19T04:08:26;16.90;99.90
9975;DHT22;5028;50.974;4.968;2022-08-19T04:10:55;16.90;99.90
9975;DHT22;5028;50.974;4.968;2022-08-19T04:13:30;16.90;99.90
9975;DHT22;5028;50.974;4.968;2022-08-19T04:16:06;16.90;99.90
9975;DHT22;5028;50.974;4.968;2022-08-19T04:18:41;16.80;99.90
9975;DHT22;5028;50.974;4.968;2022-08-19T04:21:15;16.80;99.90
9975;DHT22;5028;50.974;4.968;2022-08-19T04:23:50;16.80;99.90
9975;DHT22;5028;50.974;4.968;2022-08-19T04:26:24;16.70;99.90
9975;DHT22;5028;50.974;4.968;2022-08-19T04:29:04;16.70;99.90
9975;DHT22;5028;50.974;4.968;2022-08-19T04:31:38;16.70;99.90
9975;DHT22;5028;50.974;4.968;2022-08-19T04:34:16;16.70;99.90
9975;DHT22;5028;50.974;4.968;2022-08-19T04:36:50;16.60;99.90
9975;DHT22;5028;50.974;4.968;2022-08-19T04:39:27;16.60;99.90
9975;DHT22;5028;50.974;4.968;2022-08-19T04:42:13;16.60;99.90
9975;DHT22;5028;50.974;4.968;2022-08-19T04:45:09;16.60;99.90
9975;DHT22;5028;50.974;4.968;2022-08-19T04:47:40;16.60;99.90
9975;DHT22;5028;50.974;4.968;2022-08-19T04:50:24;16.70;99.90
9975;DHT22;5028;50.974;4.968;2022-08-19T04:52:54;16.70;99.90
9975;DHT22;5028;50.974;4.968;2022-08-19T04:55:29;16.60;99.90
9975;DHT22;5028;50.974;4.968;2022-08-19T04:58:03;16.60;99.90
9975;DHT22;5028;50.974;4.968;2022-08-19T05:00:40;16.60;99.90
9975;DHT22;5028;50.974;4.968;2022-08-19T05:03:08;16.60;99.90
9975;DHT22;5028;50.974;4.968;2022-08-19T05:05:44;16.60;99.90
9975;DHT22;5028;50.974;4.968;2022-08-19T05:08:19;16.60;99.90
9975;DHT22;5028;50.974;4.968;2022-08-19T05:10:57;16.60;99.90
9975;DHT22;5028;50.974;4.968;2022-08-19T05:13:26;16.60;99.90
9975;DHT22;5028;50.974;4.968;2022-08-19T05:16:04;16.60;99.90
9975;DHT22;5028;50.974;4.968;2022-08-19T05:18:45;16.60;99.90
9975;DHT22;5028;50.974;4.968;2022-08-19T05:21:38;16.60;99.90
9975;DHT22;5028;50.974;4.968;2022-08-19T05:24:26;16.60;99.90
9975;DHT22;5028;50.974;4.968;2022-08-19T05:27:01;16.60;99.90
9975;DHT22;5028;50.974;4.968;2022-08-19T05:29:33;16.60;99.90
9975;DHT22;5028;50.974;4.968;2022-08-19T05:32:09;16.70;99.90
9975;DHT22;5028;50.974;4.968;2022-08-19T05:34:38;16.70;99.90
9975;DHT22;5028;50.974;4.968;2022-08-19T05:37:12;16.80;99.90
9975;DHT22;5028;50.974;4.968;2022-08-19T05:39:41;16.80;99.90
9975;DHT22;5028;50.974;4.968;2022-08-19T05:42:17;16.80;99.90
9975;DHT22;5028;50.974;4.968;2022-08-19T05:44:47;16.80;99.90
9975;DHT22;5028;50.974;4.968;2022-08-19T05:47:24;16.90;99.90
9975;DHT22;5028;50.974;4.968;2022-08-19T05:49:52;16.90;99.90
9975;DHT22;5028;50.974;4.968;2022-08-19T05:52:26;16.90;99.90
9975;DHT22;5028;50.974;4.968;2022-08-19T05:54:56;16.90;99.90
9975;DHT22;5028;50.974;4.968;2022-08-19T05:57:30;17.00;99.90
9975;DHT22;5028;50.974;4.968;2022-08-19T05:59:59;17.00;99.90
9975;DHT22;5028;50.974;4.968;2022-08-19T06:02:37;17.00;99.90
9975;DHT22;5028;50.974;4.968;2022-08-19T06:05:07;17.00;99.90
9975;DHT22;5028;50.974;4.968;2022-08-19T06:07:42;17.00;99.90
9975;DHT22;5028;50.974;4.968;2022-08-19T06:10:11;17.00;99.90
9975;DHT22;5028;50.974;4.968;2022-08-19T06:12:46;17.00;99.90
9975;DHT22;5028;50.974;4.968;2022-08-19T06:15:15;17.10;99.90
9975;DHT22;5028;50.974;4.968;2022-08-19T06:17:52;17.10;99.90
9975;DHT22;5028;50.974;4.968;2022-08-19T06:20:28;17.20;99.90
9975;DHT22;5028;50.974;4.968;2022-08-19T06:23:21;17.20;99.90
9975;DHT22;5028;50.974;4.968;2022-08-19T06:25:50;17.20;99.90
9975;DHT22;5028;50.974;4.968;2022-08-19T06:28:24;17.20;99.90
9975;DHT22;5028;50.974;4.968;2022-08-19T06:31:16;17.20;99.90
9975;DHT22;5028;50.974;4.968;2022-08-19T06:34:04;17.30;99.90
9975;DHT22;5028;50.974;4.968;2022-08-19T06:36:34;17.30;99.90
9975;DHT22;5028;50.974;4.968;2022-08-19T06:39:17;17.30;99.90
9975;DHT22;5028;50.974;4.968;2022-08-19T06:41:47;17.40;99.90
9975;DHT22;5028;50.974;4.968;2022-08-19T06:44:27;17.50;99.90
9975;DHT22;5028;50.974;4.968;2022-08-19T06:46:57;17.50;99.90
9975;DHT22;5028;50.974;4.968;2022-08-19T06:49:42;17.60;99.90
9975;DHT22;5028;50.974;4.968;2022-08-19T06:52:11;17.70;99.90
9975;DHT22;5028;50.974;4.968;2022-08-19T06:54:46;17.70;99.90
9975;DHT22;5028;50.974;4.968;2022-08-19T06:57:23;17.70;99.90
9975;DHT22;5028;50.974;4.968;2022-08-19T06:59:57;17.90;99.90
9975;DHT22;5028;50.974;4.968;2022-08-19T07:02:26;17.90;99.90
9975;DHT22;5028;50.974;4.968;2022-08-19T07:05:04;17.90;99.90
9975;DHT22;5028;50.974;4.968;2022-08-19T07:07:32;18.00;99.90
9975;DHT22;5028;50.974;4.968;2022-08-19T07:10:09;18.10;99.90
9975;DHT22;5028;50.974;4.968;2022-08-19T07:12:38;18.30;99.90
9975;DHT22;5028;50.974;4.968;2022-08-19T07:15:13;18.40;99.90
9975;DHT22;5028;50.974;4.968;2022-08-19T07:17:51;18.50;99.90
9975;DHT22;5028;50.974;4.968;2022-08-19T07:20:28;18.60;99.90
9975;DHT22;5028;50.974;4.968;2022-08-19T07:22:56;18.80;99.90
9975;DHT22;5028;50.974;4.968;2022-08-19T07:25:33;18.90;99.90
9975;DHT22;5028;50.974;4.968;2022-08-19T07:28:01;19.00;99.90
9975;DHT22;5028;50.974;4.968;2022-08-19T07:30:50;19.10;99.90
9975;DHT22;5028;50.974;4.968;2022-08-19T07:33:26;19.30;99.90
9975;DHT22;5028;50.974;4.968;2022-08-19T07:35:56;19.40;99.90
9975;DHT22;5028;50.974;4.968;2022-08-19T07:38:33;19.60;99.90
9975;DHT22;5028;50.974;4.968;2022-08-19T07:41:02;19.60;99.90
9975;DHT22;5028;50.974;4.968;2022-08-19T07:43:37;19.70;99.90
9975;DHT22;5028;50.974;4.968;2022-08-19T07:46:06;19.80;99.90
9975;DHT22;5028;50.974;4.968;2022-08-19T07:48:41;19.90;99.90
9975;DHT22;5028;50.974;4.968;2022-08-19T07:51:14;20.00;99.90
9975;DHT22;5028;50.974;4.968;2022-08-19T07:54:03;20.10;99.90
9975;DHT22;5028;50.974;4.968;2022-08-19T07:56:31;20.20;99.90
9975;DHT22;5028;50.974;4.968;2022-08-19T07:59:07;20.40;99.90
9975;DHT22;5028;50.974;4.968;2022-08-19T08:01:36;20.40;99.90
9975;DHT22;5028;50.974;4.968;2022-08-19T08:04:13;20.40;99.90
9975;DHT22;5028;50.974;4.968;2022-08-19T08:07:03;20.40;99.90
9975;DHT22;5028;50.974;4.968;2022-08-19T08:10:03;20.60;99.90
9975;DHT22;5028;50.974;4.968;2022-08-19T08:12:40;20.80;99.90
9975;DHT22;5028;50.974;4.968;2022-08-19T08:15:35;20.90;99.90
9975;DHT22;5028;50.974;4.968;2022-08-19T08:18:09;21.10;99.90
9975;DHT22;5028;50.974;4.968;2022-08-19T08:20:56;21.10;99.90
9975;DHT22;5028;50.974;4.968;2022-08-19T08:23:26;21.00;99.90
9975;DHT22;5028;50.974;4.968;2022-08-19T08:26:05;21.00;99.90
9975;DHT22;5028;50.974;4.968;2022-08-19T08:28:34;21.10;99.90
9975;DHT22;5028;50.974;4.968;2022-08-19T08:31:15;21.10;99.90
9975;DHT22;5028;50.974;4.968;2022-08-19T08:33:47;21.30;99.90
9975;DHT22;5028;50.974;4.968;2022-08-19T08:36:22;21.40;99.90
9975;DHT22;5028;50.974;4.968;2022-08-19T08:38:53;21.60;99.90
9975;DHT22;5028;50.974;4.968;2022-08-19T08:41:37;21.80;99.90
9975;DHT22;5028;50.974;4.968;2022-08-19T08:44:15;21.90;99.90
9975;DHT22;5028;50.974;4.968;2022-08-19T08:46:54;22.00;99.90
9975;DHT22;5028;50.974;4.968;2022-08-19T08:49:31;22.00;99.90
9975;DHT22;5028;50.974;4.968;2022-08-19T08:52:13;22.40;99.90
9975;DHT22;5028;50.974;4.968;2022-08-19T08:54:47;22.50;99.90
9975;DHT22;5028;50.974;4.968;2022-08-19T08:57:27;22.20;99.90
9975;DHT22;5028;50.974;4.968;2022-08-19T09:00:10;22.30;99.90
9975;DHT22;5028;50.974;4.968;2022-08-19T09:02:47;22.60;99.90
9975;DHT22;5028;50.974;4.968;2022-08-19T09:05:17;23.00;99.90
9975;DHT22;5028;50.974;4.968;2022-08-19T09:08:08;23.20;99.90
9975;DHT22;5028;50.974;4.968;2022-08-19T09:10:44;23.40;99.90
9975;DHT22;5028;50.974;4.968;2022-08-19T09:13:27;23.30;99.90
9975;DHT22;5028;50.974;4.968;2022-08-19T09:16:06;23.10;99.90
9975;DHT22;5028;50.974;4.968;2022-08-19T09:18:50;22.90;99.90
9975;DHT22;5028;50.974;4.968;2022-08-19T09:21:20;22.70;99.90
9975;DHT22;5028;50.974;4.968;2022-08-19T09:24:00;22.60;99.90
9975;DHT22;5028;50.974;4.968;2022-08-19T09:26:31;22.60;99.90
9975;DHT22;5028;50.974;4.968;2022-08-19T09:29:18;22.60;99.90
9975;DHT22;5028;50.974;4.968;2022-08-19T09:31:48;22.50;99.90
9975;DHT22;5028;50.974;4.968;2022-08-19T09:34:24;22.70;99.90
9975;DHT22;5028;50.974;4.968;2022-08-19T09:36:52;22.80;99.90
9975;DHT22;5028;50.974;4.968;2022-08-19T09:39:28;22.90;99.90
9975;DHT22;5028;50.974;4.968;2022-08-19T09:42:03;23.20;99.90
9975;DHT22;5028;50.974;4.968;2022-08-19T09:44:56;23.60;99.90
9975;DHT22;5028;50.974;4.968;2022-08-19T09:47:26;23.80;99.90
9975;DHT22;5028;50.974;4.968;2022-08-19T09:50:02;23.80;99.90
9975;DHT22;5028;50.974;4.968;2022-08-19T09:52:32;23.80;99.90
9975;DHT22;5028;50.974;4.968;2022-08-19T09:55:23;23.80;99.90
9975;DHT22;5028;50.974;4.968;2022-08-19T09:58:01;23.60;99.90
9975;DHT22;5028;50.974;4.968;2022-08-19T10:00:37;23.30;99.90
9975;DHT22;5028;50.974;4.968;2022-08-19T10:03:06;23.10;99.90
9975;DHT22;5028;50.974;4.968;2022-08-19T10:05:40;23.10;99.90
9975;DHT22;5028;50.974;4.968;2022-08-19T10:08:23;23.20;99.90
9975;DHT22;5028;50.974;4.968;2022-08-19T10:11:00;23.30;99.90
9975;DHT22;5028;50.974;4.968;2022-08-19T10:13:50;23.20;99.90
9975;DHT22;5028;50.974;4.968;2022-08-19T10:16:25;23.10;99.90
9975;DHT22;5028;50.974;4.968;2022-08-19T10:19:12;22.90;99.90
9975;DHT22;5028;50.974;4.968;2022-08-19T10:21:52;23.10;99.90
9975;DHT22;5028;50.974;4.968;2022-08-19T10:24:26;23.10;99.90
9975;DHT22;5028;50.974;4.968;2022-08-19T10:27:02;23.10;99.90
9975;DHT22;5028;50.974;4.968;2022-08-19T10:29:36;23.00;99.90
9975;DHT22;5028;50.974;4.968;2022-08-19T10:32:12;23.10;99.90
9975;DHT22;5028;50.974;4.968;2022-08-19T10:34:49;23.20;99.90
9975;DHT22;5028;50.974;4.968;2022-08-19T10:37:39;23.50;99.90
9975;DHT22;5028;50.974;4.968;2022-08-19T10:40:23;23.50;99.90
9975;DHT22;5028;50.974;4.968;2022-08-19T10:42:52;23.60;99.90
9975;DHT22;5028;50.974;4.968;2022-08-19T10:45:28;23.70;99.90
9975;DHT22;5028;50.974;4.968;2022-08-19T10:47:56;23.70;99.90
9975;DHT22;5028;50.974;4.968;2022-08-19T10:50:25;23.50;99.90
9975;DHT22;5028;50.974;4.968;2022-08-19T10:53:18;23.60;99.90
9975;DHT22;5028;50.974;4.968;2022-08-19T10:55:56;23.60;99.90
9975;DHT22;5028;50.974;4.968;2022-08-19T10:58:42;23.80;99.90
9975;DHT22;5028;50.974;4.968;2022-08-19T11:01:19;24.00;99.90
9975;DHT22;5028;50.974;4.968;2022-08-19T11:03:47;23.90;99.90
9975;DHT22;5028;50.974;4.968;2022-08-19T11:06:23;23.90;99.90
9975;DHT22;5028;50.974;4.968;2022-08-19T11:08:52;23.90;99.90
9975;DHT22;5028;50.974;4.968;2022-08-19T11:11:28;24.00;99.90
9975;DHT22;5028;50.974;4.968;2022-08-19T11:13:56;24.00;99.90
9975;DHT22;5028;50.974;4.968;2022-08-19T11:16:34;24.20;99.90
9975;DHT22;5028;50.974;4.968;2022-08-19T11:19:16;24.40;99.90
9975;DHT22;5028;50.974;4.968;2022-08-19T11:21:52;24.60;99.90
9975;DHT22;5028;50.974;4.968;2022-08-19T11:24:26;24.60;99.90
9975;DHT22;5028;50.974;4.968;2022-08-19T11:27:04;24.50;99.90
9975;DHT22;5028;50.974;4.968;2022-08-19T11:29:33;24.60;99.90
9975;DHT22;5028;50.974;4.968;2022-08-19T11:32:10;24.70;99.90
9975;DHT22;5028;50.974;4.968;2022-08-19T11:34:39;24.70;99.90
9975;DHT22;5028;50.974;4.968;2022-08-19T11:37:15;24.50;99.90
9975;DHT22;5028;50.974;4.968;2022-08-19T11:39:43;24.70;99.90
9975;DHT22;5028;50.974;4.968;2022-08-19T11:42:19;25.00;99.90
9975;DHT22;5028;50.974;4.968;2022-08-19T11:45:06;25.00;99.90
9975;DHT22;5028;50.974;4.968;2022-08-19T11:47:45;24.90;99.90
9975;DHT22;5028;50.974;4.968;2022-08-19T11:50:14;25.00;99.90
9975;DHT22;5028;50.974;4.968;2022-08-19T11:52:49;24.90;99.90
9975;DHT22;5028;50.974;4.968;2022-08-19T11:55:18;24.80;99.90
9975;DHT22;5028;50.974;4.968;2022-08-19T11:57:53;24.80;99.90
9975;DHT22;5028;50.974;4.968;2022-08-19T12:00:21;24.70;99.90
9975;DHT22;5028;50.974;4.968;2022-08-19T12:02:58;24.90;99.90
9975;DHT22;5028;50.974;4.968;2022-08-19T12:05:27;25.00;99.90
9975;DHT22;5028;50.974;4.968;2022-08-19T12:08:02;24.90;99.90
9975;DHT22;5028;50.974;4.968;2022-08-19T12:10:31;24.90;99.90
9975;DHT22;5028;50.974;4.968;2022-08-19T12:13:06;24.90;99.90
9975;DHT22;5028;50.974;4.968;2022-08-19T12:15:35;25.00;99.90
9975;DHT22;5028;50.974;4.968;2022-08-19T12:18:12;24.90;99.90
9975;DHT22;5028;50.974;4.968;2022-08-19T12:20:47;24.80;99.90
9975;DHT22;5028;50.974;4.968;2022-08-19T12:23:25;24.70;99.90
9975;DHT22;5028;50.974;4.968;2022-08-19T12:25:53;24.70;99.90
9975;DHT22;5028;50.974;4.968;2022-08-19T12:28:30;24.70;99.90
9975;DHT22;5028;50.974;4.968;2022-08-19T12:30:59;24.80;99.90
9975;DHT22;5028;50.974;4.968;2022-08-19T12:33:35;24.80;99.90
9975;DHT22;5028;50.974;4.968;2022-08-19T12:36:07;24.60;99.90
9975;DHT22;5028;50.974;4.968;2022-08-19T12:38:43;24.50;99.90
9975;DHT22;5028;50.974;4.968;2022-08-19T12:41:17;24.50;99.90
9975;DHT22;5028;50.974;4.968;2022-08-19T12:43:52;24.50;99.90
9975;DHT22;5028;50.974;4.968;2022-08-19T12:46:21;24.60;99.90
9975;DHT22;5028;50.974;4.968;2022-08-19T12:48:58;24.60;99.90
9975;DHT22;5028;50.974;4.968;2022-08-19T12:51:34;24.80;99.90
9975;DHT22;5028;50.974;4.968;2022-08-19T12:54:10;24.80;99.90
9975;DHT22;5028;50.974;4.968;2022-08-19T12:56:38;24.80;99.90
9975;DHT22;5028;50.974;4.968;2022-08-19T12:59:14;24.70;99.90
9975;DHT22;5028;50.974;4.968;2022-08-19T13:01:44;24.70;99.90
9975;DHT22;5028;50.974;4.968;2022-08-19T13:04:20;24.70;99.90
9975;DHT22;5028;50.974;4.968;2022-08-19T13:06:49;24.70;99.90
9975;DHT22;5028;50.974;4.968;2022-08-19T13:09:24;24.80;99.90
9975;DHT22;5028;50.974;4.968;2022-08-19T13:11:52;25.10;99.90
9975;DHT22;5028;50.974;4.968;2022-08-19T13:14:27;25.10;99.90
9975;DHT22;5028;50.974;4.968;2022-08-19T13:17:05;25.30;99.90
9975;DHT22;5028;50.974;4.968;2022-08-19T13:19:42;25.30;99.90
9975;DHT22;5028;50.974;4.968;2022-08-19T13:22:17;25.60;99.90
9975;DHT22;5028;50.974;4.968;2022-08-19T13:24:52;25.70;99.90
9975;DHT22;5028;50.974;4.968;2022-08-19T13:27:20;25.80;99.90
9975;DHT22;5028;50.974;4.968;2022-08-19T13:29:56;26.00;99.90
9975;DHT22;5028;50.974;4.968;2022-08-19T13:32:56;25.80;99.90
9975;DHT22;5028;50.974;4.968;2022-08-19T13:35:53;25.90;99.90
9975;DHT22;5028;50.974;4.968;2022-08-19T13:38:24;25.90;99.90
9975;DHT22;5028;50.974;4.968;2022-08-19T13:41:04;26.10;99.90
9975;DHT22;5028;50.974;4.968;2022-08-19T13:43:39;26.30;99.90
9975;DHT22;5028;50.974;4.968;2022-08-19T13:46:14;26.30;99.90
9975;DHT22;5028;50.974;4.968;2022-08-19T13:48:42;26.10;99.90
9975;DHT22;5028;50.974;4.968;2022-08-19T13:51:19;26.20;99.90
9975;DHT22;5028;50.974;4.968;2022-08-19T13:53:47;26.70;99.90
9975;DHT22;5028;50.974;4.968;2022-08-19T13:56:24;27.10;99.90
9975;DHT22;5028;50.974;4.968;2022-08-19T13:58:52;27.60;99.90
9975;DHT22;5028;50.974;4.968;2022-08-19T14:01:28;27.80;99.90
9975;DHT22;5028;50.974;4.968;2022-08-19T14:03:57;27.60;99.90
9975;DHT22;5028;50.974;4.968;2022-08-19T14:06:33;27.40;99.90
9975;DHT22;5028;50.974;4.968;2022-08-19T14:09:02;27.10;99.90
9975;DHT22;5028;50.974;4.968;2022-08-19T14:11:38;27.10;99.90
9975;DHT22;5028;50.974;4.968;2022-08-19T14:14:06;26.90;99.90
9975;DHT22;5028;50.974;4.968;2022-08-19T14:16:48;26.60;99.90
9975;DHT22;5028;50.974;4.968;2022-08-19T14:19:30;26.30;99.90
9975;DHT22;5028;50.974;4.968;2022-08-19T14:22:08;26.20;99.90
9975;DHT22;5028;50.974;4.968;2022-08-19T14:24:39;26.20;99.90
9975;DHT22;5028;50.974;4.968;2022-08-19T14:27:15;26.20;99.90
9975;DHT22;5028;50.974;4.968;2022-08-19T14:29:43;26.40;99.90
9975;DHT22;5028;50.974;4.968;2022-08-19T14:32:19;26.50;99.90
9975;DHT22;5028;50.974;4.968;2022-08-19T14:34:48;26.50;99.90
9975;DHT22;5028;50.974;4.968;2022-08-19T14:37:26;26.30;99.90
9975;DHT22;5028;50.974;4.968;2022-08-19T14:39:55;25.80;99.90
9975;DHT22;5028;50.974;4.968;2022-08-19T14:42:30;25.70;99.90
9975;DHT22;5028;50.974;4.968;2022-08-19T14:44:59;25.80;99.90
9975;DHT22;5028;50.974;4.968;2022-08-19T14:47:34;25.90;99.90
9975;DHT22;5028;50.974;4.968;2022-08-19T14:50:06;25.90;99.90
9975;DHT22;5028;50.974;4.968;2022-08-19T14:52:46;25.90;99.90
9975;DHT22;5028;50.974;4.968;2022-08-19T14:55:16;26.00;99.90
9975;DHT22;5028;50.974;4.968;2022-08-19T14:57:51;26.00;99.90
9975;DHT22;5028;50.974;4.968;2022-08-19T15:00:19;26.10;99.90
9975;DHT22;5028;50.974;4.968;2022-08-19T15:02:54;26.10;99.90
9975;DHT22;5028;50.974;4.968;2022-08-19T15:05:22;26.00;99.90
9975;DHT22;5028;50.974;4.968;2022-08-19T15:08:02;25.90;99.90
9975;DHT22;5028;50.974;4.968;2022-08-19T15:10:31;26.00;99.90
9975;DHT22;5028;50.974;4.968;2022-08-19T15:13:06;25.90;99.90
9975;DHT22;5028;50.974;4.968;2022-08-19T15:15:36;25.70;99.90
9975;DHT22;5028;50.974;4.968;2022-08-19T15:18:19;25.60;99.90
9975;DHT22;5028;50.974;4.968;2022-08-19T15:21:00;25.50;99.90
9975;DHT22;5028;50.974;4.968;2022-08-19T15:23:36;25.60;99.90
9975;DHT22;5028;50.974;4.968;2022-08-19T15:26:05;25.60;99.90
9975;DHT22;5028;50.974;4.968;2022-08-19T15:28:42;25.70;99.90
9975;DHT22;5028;50.974;4.968;2022-08-19T15:31:11;25.70;99.90
9975;DHT22;5028;50.974;4.968;2022-08-19T15:33:55;25.70;99.90
9975;DHT22;5028;50.974;4.968;2022-08-19T15:36:25;25.60;99.90
9975;DHT22;5028;50.974;4.968;2022-08-19T15:39:02;25.50;99.90
9975;DHT22;5028;50.974;4.968;2022-08-19T15:41:32;25.60;99.90
9975;DHT22;5028;50.974;4.968;2022-08-19T15:44:09;25.30;99.90
9975;DHT22;5028;50.974;4.968;2022-08-19T15:46:41;24.90;99.90
9975;DHT22;5028;50.974;4.968;2022-08-19T15:49:18;24.70;99.90
9975;DHT22;5028;50.974;4.968;2022-08-19T15:51:48;24.50;99.90
9975;DHT22;5028;50.974;4.968;2022-08-19T15:54:25;24.40;99.90
9975;DHT22;5028;50.974;4.968;2022-08-19T15:56:54;24.20;99.90
9975;DHT22;5028;50.974;4.968;2022-08-19T15:59:47;24.10;99.90
9975;DHT22;5028;50.974;4.968;2022-08-19T16:02:39;24.00;99.90
9975;DHT22;5028;50.974;4.968;2022-08-19T16:05:26;24.00;99.90
9975;DHT22;5028;50.974;4.968;2022-08-19T16:08:18;24.00;99.90
9975;DHT22;5028;50.974;4.968;2022-08-19T16:10:48;24.00;99.90
9975;DHT22;5028;50.974;4.968;2022-08-19T16:13:23;23.90;99.90
9975;DHT22;5028;50.974;4.968;2022-08-19T16:15:51;23.90;99.90
9975;DHT22;5028;50.974;4.968;2022-08-19T16:18:36;23.90;99.90
9975;DHT22;5028;50.974;4.968;2022-08-19T16:21:05;24.10;99.90
9975;DHT22;5028;50.974;4.968;2022-08-19T16:23:42;24.10;99.90
9975;DHT22;5028;50.974;4.968;2022-08-19T16:26:14;24.10;99.90
9975;DHT22;5028;50.974;4.968;2022-08-19T16:28:54;24.10;99.90
9975;DHT22;5028;50.974;4.968;2022-08-19T16:31:24;24.20;99.90
9975;DHT22;5028;50.974;4.968;2022-08-19T16:33:59;24.30;99.90
9975;DHT22;5028;50.974;4.968;2022-08-19T16:36:28;24.30;99.90
9975;DHT22;5028;50.974;4.968;2022-08-19T16:39:03;24.30;99.90
9975;DHT22;5028;50.974;4.968;2022-08-19T16:41:33;24.30;99.90
9975;DHT22;5028;50.974;4.968;2022-08-19T16:44:10;24.30;99.90
9975;DHT22;5028;50.974;4.968;2022-08-19T16:46:39;24.30;99.90
9975;DHT22;5028;50.974;4.968;2022-08-19T16:49:25;24.30;99.90
9975;DHT22;5028;50.974;4.968;2022-08-19T16:52:13;24.20;99.90
9975;DHT22;5028;50.974;4.968;2022-08-19T16:54:48;24.20;99.90